Time;durP1;ratioP1;P1;durP2;ratioP2;P2;SDS_P1;SDS_P2;PMS_P1;PMS_P2;Temp;Humidity;BMP_temperature;BMP_pressure;BME280_temperature;BME280_humidity;BME280_pressure;Samples;Min_cycle;Max_cycle;Signal;HPM_P1;HPM_P2
2021/08/13 00:00:25;;;;;;;11.27;8.98;;;;;;;15.66;100.00;93614.03;2114910;28;20023;-86
2021/08/13 00:01:25;;;;;;;9.52;8.57;;;;;;;15.58;100.00;93610.81;2115385;28;20119;-85
2021/08/13 00:02:26;;;;;;;9.07;8.05;;;;;;;15.60;100.00;93610.38;2114060;28;20038;-87
2021/08/13 00:03:27;;;;;;;8.68;7.88;;;;;;;15.62;100.00;93605.28;2104237;28;20035;-87
2021/08/13 00:04:28;;;;;;;9.05;8.15;;;;;;;15.57;100.00;93612.00;2097974;28;20025;-86
2021/08/13 00:05:29;;;;;;;10.77;8.30;;;;;;;15.51;100.00;93605.66;2098009;28;20024;-85
2021/08/13 00:06:31;;;;;;;8.32;7.53;;;;;;;15.42;100.00;93610.22;2097697;28;20052;-88
2021/08/13 00:07:32;;;;;;;11.43;8.45;;;;;;;15.42;100.00;93608.25;2097605;28;20123;-86
2021/08/13 00:08:33;;;;;;;9.90;8.05;;;;;;;15.50;100.00;93612.25;2104822;28;20016;-85
2021/08/13 00:09:33;;;;;;;8.60;7.78;;;;;;;15.38;100.00;93615.69;2089434;28;20025;-85
2021/08/13 00:10:36;;;;;;;11.30;7.88;;;;;;;15.47;100.00;93606.97;2088663;28;20107;-85
2021/08/13 00:11:38;;;;;;;10.15;8.52;;;;;;;15.40;100.00;93607.94;2089847;28;20118;-85
2021/08/13 00:12:39;;;;;;;11.52;8.18;;;;;;;15.40;100.00;93610.63;2098088;28;20507;-85
2021/08/13 00:13:40;;;;;;;10.50;8.30;;;;;;;15.48;100.00;93601.13;2097509;28;20031;-86
2021/08/13 00:14:41;;;;;;;10.23;8.13;;;;;;;15.45;100.00;93604.72;2089429;28;20443;-86
2021/08/13 00:15:42;;;;;;;11.32;8.27;;;;;;;15.39;100.00;93609.13;2106070;28;20108;-87
2021/08/13 00:16:43;;;;;;;9.95;8.48;;;;;;;15.46;100.00;93608.91;2106160;28;20016;-86
2021/08/13 00:17:43;;;;;;;11.38;8.32;;;;;;;15.50;100.00;93617.63;2106083;28;20400;-86
2021/08/13 00:18:44;;;;;;;10.55;8.52;;;;;;;15.54;100.00;93615.56;2106008;28;20028;-84
2021/08/13 00:19:45;;;;;;;11.35;7.93;;;;;;;15.49;100.00;93613.41;2097260;28;20075;-87
2021/08/13 00:20:46;;;;;;;9.73;8.68;;;;;;;15.46;100.00;93610.84;2097767;28;20110;-86
2021/08/13 00:21:48;;;;;;;11.70;8.43;;;;;;;15.48;100.00;93614.59;2097865;28;20488;-86
2021/08/13 00:22:52;;;;;;;11.07;8.73;;;;;;;15.53;100.00;93613.28;2106126;28;20032;-86
2021/08/13 00:23:53;;;;;;;8.85;8.00;;;;;;;15.50;100.00;93614.19;2090570;28;20028;-86
2021/08/13 00:24:54;;;;;;;9.20;8.30;;;;;;;15.54;100.00;93612.09;2097043;28;20024;-85
2021/08/13 00:25:55;;;;;;;9.93;8.32;;;;;;;15.54;100.00;93602.09;2106111;28;20027;-85
2021/08/13 00:26:56;;;;;;;12.75;8.20;;;;;;;15.53;100.00;93614.03;2089430;28;20039;-87
2021/08/13 00:27:57;;;;;;;10.32;8.13;;;;;;;15.45;100.00;93612.00;2097804;28;20054;-86
2021/08/13 00:28:58;;;;;;;10.15;8.43;;;;;;;15.48;100.00;93624.63;2106067;28;20051;-86
2021/08/13 00:29:59;;;;;;;9.52;8.50;;;;;;;15.50;100.00;93630.34;2105040;28;20036;-86
2021/08/13 00:30:59;;;;;;;16.00;8.50;;;;;;;15.46;100.00;93627.75;2097386;28;20055;-85
2021/08/13 00:32:00;;;;;;;9.00;8.10;;;;;;;15.47;100.00;93625.81;2089507;28;20021;-85
2021/08/13 00:33:01;;;;;;;9.63;8.55;;;;;;;15.48;100.00;93628.06;2089491;28;20232;-86
2021/08/13 00:34:02;;;;;;;9.88;8.32;;;;;;;15.44;100.00;93627.44;2097854;28;20083;-85
2021/08/13 00:35:04;;;;;;;10.10;8.30;;;;;;;15.48;100.00;93628.06;2097670;28;20033;-85
2021/08/13 00:36:05;;;;;;;9.27;7.90;;;;;;;15.50;100.00;93624.97;2089462;28;20391;-86
2021/08/13 00:37:06;;;;;;;9.10;8.20;;;;;;;15.45;100.00;93626.25;2089409;28;20021;-86
2021/08/13 00:38:07;;;;;;;11.05;8.52;;;;;;;15.33;100.00;93629.72;2084885;28;20040;-86
2021/08/13 00:39:08;;;;;;;8.48;7.70;;;;;;;15.37;100.00;93633.06;2084990;28;20017;-86
2021/08/13 00:40:09;;;;;;;11.05;8.48;;;;;;;15.35;100.00;93630.78;2097531;28;20046;-85
2021/08/13 00:41:10;;;;;;;9.38;7.88;;;;;;;15.33;100.00;93630.47;2089574;28;20048;-84
2021/08/13 00:42:11;;;;;;;11.35;8.50;;;;;;;15.38;100.00;93628.44;2095335;28;20016;-87
2021/08/13 00:43:12;;;;;;;9.68;8.07;;;;;;;15.26;100.00;93638.00;2097572;28;20038;-86
2021/08/13 00:44:13;;;;;;;12.48;8.55;;;;;;;15.33;100.00;93633.16;2097888;28;20029;-86
2021/08/13 00:45:14;;;;;;;9.82;7.97;;;;;;;15.30;100.00;93634.03;2105739;28;20474;-87
2021/08/13 00:46:15;;;;;;;9.10;8.15;;;;;;;15.25;100.00;93639.22;2097767;28;20036;-87
2021/08/13 00:47:16;;;;;;;9.98;8.43;;;;;;;15.28;100.00;93636.41;2089184;28;20028;-86
2021/08/13 00:48:17;;;;;;;10.13;8.07;;;;;;;15.29;100.00;93639.84;2097429;28;20028;-87
2021/08/13 00:49:18;;;;;;;9.02;8.23;;;;;;;15.28;100.00;93649.13;2097542;28;20020;-85
2021/08/13 00:50:19;;;;;;;11.05;8.07;;;;;;;15.24;100.00;93637.72;2097348;28;20688;-88
2021/08/13 00:51:20;;;;;;;9.43;8.45;;;;;;;15.18;100.00;93634.03;2105905;28;20040;-89
2021/08/13 00:52:21;;;;;;;10.00;8.52;;;;;;;15.15;100.00;93638.38;2106278;28;20019;-86
2021/08/13 00:53:23;;;;;;;8.57;7.65;;;;;;;15.19;100.00;93632.84;2097053;28;20024;-85
2021/08/13 00:54:25;;;;;;;9.80;8.38;;;;;;;15.15;100.00;93634.91;2097767;28;20024;-87
2021/08/13 00:55:26;;;;;;;8.23;7.40;;;;;;;15.27;100.00;93642.22;2114027;28;20532;-86
2021/08/13 00:56:27;;;;;;;12.52;8.85;;;;;;;15.16;100.00;93637.16;2097685;28;20032;-85
2021/08/13 00:57:28;;;;;;;11.05;8.23;;;;;;;15.15;100.00;93634.91;2089292;28;20478;-86
2021/08/13 00:58:29;;;;;;;10.90;8.30;;;;;;;15.11;100.00;93635.78;2089247;28;20462;-87
2021/08/13 00:59:30;;;;;;;11.63;8.23;;;;;;;15.14;100.00;93639.53;2088973;28;20451;-86
2021/08/13 01:00:32;;;;;;;11.48;8.85;;;;;;;15.13;100.00;93634.59;2105730;28;20030;-85
2021/08/13 01:01:33;;;;;;;9.38;8.45;;;;;;;15.11;100.00;93638.47;2105655;28;20023;-87
2021/08/13 01:02:34;;;;;;;9.02;8.13;;;;;;;15.15;100.00;93629.53;2089209;28;20126;-86
2021/08/13 01:03:36;;;;;;;9.73;8.82;;;;;;;15.16;100.00;93634.47;2097430;28;20539;-87
2021/08/13 01:04:37;;;;;;;9.95;8.27;;;;;;;15.20;100.00;93637.06;2097234;28;20062;-86
2021/08/13 01:05:38;;;;;;;10.15;8.30;;;;;;;15.17;100.00;93632.53;2097585;28;20412;-87
2021/08/13 01:06:39;;;;;;;10.45;8.43;;;;;;;15.18;100.00;93636.72;2097366;28;20048;-86
2021/08/13 01:07:40;;;;;;;8.75;7.85;;;;;;;15.19;100.00;93640.91;2096658;28;20029;-86
2021/08/13 01:08:42;;;;;;;9.15;8.25;;;;;;;15.13;100.00;93634.59;2080749;28;20353;-85
2021/08/13 01:09:43;;;;;;;11.60;8.32;;;;;;;15.14;100.00;93639.53;2085029;28;20082;-85
2021/08/13 01:10:52;;;;;;;12.80;8.40;;;;;;;15.28;100.00;93631.03;2089163;28;20023;-84
2021/08/13 01:12:03;;;;;;;10.25;8.70;;;;;;;15.34;100.00;93642.75;2091309;28;20024;-87
2021/08/13 01:13:11;;;;;;;14.45;8.70;;;;;;;15.30;100.00;93641.34;2091742;28;20017;-86
2021/08/13 01:14:30;;;;;;;10.80;8.70;;;;;;;15.28;100.00;93636.41;2094276;28;20032;-86
2021/08/13 01:15:35;;;;;;;9.27;8.38;;;;;;;15.27;100.00;93644.91;2093802;28;20100;-84
2021/08/13 01:16:42;;;;;;;11.18;9.05;;;;;;;15.23;100.00;93645.03;2089930;28;20104;-85
2021/08/13 01:17:57;;;;;;;10.98;9.00;;;;;;;15.17;100.00;93629.84;2094346;28;20405;-87
2021/08/13 01:19:07;;;;;;;9.45;8.43;;;;;;;15.21;100.00;93641.25;2099289;28;20032;-86
2021/08/13 01:20:14;;;;;;;10.00;9.00;;;;;;;15.08;100.00;93633.94;2099551;28;20042;-86
2021/08/13 01:21:22;;;;;;;9.25;8.35;;;;;;;15.08;100.00;93633.94;2097833;28;20065;-85
2021/08/13 01:22:33;;;;;;;10.60;8.75;;;;;;;15.09;100.00;93637.38;2106617;28;20574;-87
2021/08/13 01:23:39;;;;;;;14.05;8.70;;;;;;;15.13;100.00;93632.63;2098773;28;20063;-86
2021/08/13 01:24:43;;;;;;;9.32;8.20;;;;;;;15.11;100.00;93627.69;2098037;28;20517;-86
2021/08/13 01:25:54;;;;;;;9.35;8.43;;;;;;;15.03;100.00;93645.25;2090641;28;20581;-86
2021/08/13 01:27:09;;;;;;;9.80;8.57;;;;;;;15.03;100.00;93639.13;2098578;28;20515;-86
2021/08/13 01:28:24;;;;;;;8.98;8.05;;;;;;;15.05;100.00;93639.41;2107518;28;20031;-87
2021/08/13 01:29:34;;;;;;;9.48;8.20;;;;;;;15.08;100.00;93649.34;2090815;28;20028;-86
2021/08/13 01:30:37;;;;;;;9.15;8.15;;;;;;;15.01;100.00;93641.47;2089953;28;20025;-87
2021/08/13 01:31:45;;;;;;;9.35;8.40;;;;;;;15.03;100.00;93639.88;2097432;28;20378;-86
2021/08/13 01:33:06;;;;;;;9.40;8.52;;;;;;;15.13;100.00;93634.59;2090662;28;20512;-87
2021/08/13 01:34:11;;;;;;;9.50;8.57;;;;;;;15.15;100.00;93632.97;2094533;28;20505;-87
2021/08/13 01:35:18;;;;;;;10.40;8.82;;;;;;;15.09;100.00;93637.38;2098172;28;20050;-86
2021/08/13 01:36:21;;;;;;;9.57;8.55;;;;;;;15.06;100.00;93639.00;2100305;28;20016;-86
2021/08/13 01:37:23;;;;;;;9.60;8.60;;;;;;;15.06;100.00;93636.31;2113874;28;20492;-86
2021/08/13 01:38:27;;;;;;;10.85;8.75;;;;;;;15.07;100.00;93637.81;2095747;28;20032;-88
2021/08/13 01:39:30;;;;;;;9.93;8.95;;;;;;;14.97;100.00;93636.22;2089725;28;20060;-86
2021/08/13 01:40:33;;;;;;;10.52;8.65;;;;;;;14.97;100.00;93638.13;2089306;28;20076;-86
2021/08/13 01:41:38;;;;;;;9.55;8.50;;;;;;;14.88;100.00;93628.00;2089324;28;20055;-84
2021/08/13 01:42:40;;;;;;;10.70;8.80;;;;;;;14.93;100.00;93627.50;2096382;28;20031;-87
2021/08/13 01:43:43;;;;;;;9.70;8.70;;;;;;;14.85;100.00;93626.19;2097161;28;20028;-86
2021/08/13 01:44:44;;;;;;;10.35;8.60;;;;;;;14.88;100.00;93625.31;2097453;28;20493;-85
2021/08/13 01:45:46;;;;;;;9.57;8.07;;;;;;;14.79;100.00;93625.19;2104976;28;20016;-85
2021/08/13 01:46:48;;;;;;;9.77;8.43;;;;;;;14.81;100.00;93631.66;2089349;28;20465;-87
2021/08/13 01:47:50;;;;;;;10.65;8.38;;;;;;;14.73;100.00;93624.22;2097314;28;20479;-85
2021/08/13 01:48:52;;;;;;;9.68;8.70;;;;;;;14.81;100.00;93622.84;2097214;28;20047;-86
2021/08/13 01:49:53;;;;;;;9.40;8.40;;;;;;;14.83;100.00;93621.22;2088926;28;20033;-87
2021/08/13 01:50:56;;;;;;;9.05;8.15;;;;;;;14.70;100.00;93630.47;2097331;28;20526;-85
2021/08/13 01:52:01;;;;;;;9.27;8.32;;;;;;;14.68;100.00;93632.84;2105799;28;20034;-85
2021/08/13 01:53:03;;;;;;;8.70;7.78;;;;;;;14.71;100.00;93623.94;2097654;28;20031;-86
2021/08/13 01:54:05;;;;;;;10.52;8.43;;;;;;;14.73;100.00;93621.53;2097610;28;20025;-85
2021/08/13 01:55:07;;;;;;;13.23;8.93;;;;;;;14.70;100.00;93622.41;2097130;28;20028;-86
2021/08/13 01:56:08;;;;;;;10.65;8.38;;;;;;;14.68;100.00;93620.16;2097126;28;20021;-87
2021/08/13 01:57:09;;;;;;;9.20;8.35;;;;;;;14.69;100.00;93621.66;2105571;28;20035;-87
2021/08/13 01:58:11;;;;;;;10.52;8.25;;;;;;;14.71;100.00;93621.22;2096976;28;20020;-86
2021/08/13 01:59:13;;;;;;;9.07;8.15;;;;;;;14.67;100.00;93626.72;2089060;28;20025;-87
2021/08/13 02:00:16;;;;;;;9.13;8.18;;;;;;;14.67;100.00;93631.34;2085261;28;20158;-87
2021/08/13 02:01:18;;;;;;;9.60;8.63;;;;;;;14.59;100.00;93636.91;2088790;28;20483;-86
2021/08/13 02:02:20;;;;;;;11.13;8.13;;;;;;;14.62;100.00;93632.63;2097333;28;20440;-87
2021/08/13 02:03:20;;;;;;;11.88;8.82;;;;;;;14.54;100.00;93634.75;2102789;28;20026;-85
2021/08/13 02:04:21;;;;;;;9.18;8.05;;;;;;;14.54;100.00;93634.75;2097176;28;20028;-86
2021/08/13 02:06:49;;;;;;;;;;;;;;;14.56;100.00;93639.72;2147825;27;20113;-89
2021/08/13 02:07:52;;;;;;;11.95;8.02;;;;;;;14.56;100.00;93637.00;2133669;27;19950;-87
2021/08/13 02:08:54;;;;;;;12.38;8.23;;;;;;;14.57;100.00;93636.59;2117107;27;20028;-88
2021/08/13 02:09:55;;;;;;;11.23;8.05;;;;;;;14.55;100.00;93625.50;2108721;27;20028;-87
2021/08/13 02:10:56;;;;;;;12.35;8.63;;;;;;;14.54;100.00;93632.06;2110600;28;20028;-87
2021/08/13 02:11:57;;;;;;;9.70;8.70;;;;;;;14.54;100.00;93634.75;2104355;28;20366;-87
2021/08/13 02:12:58;;;;;;;11.48;8.82;;;;;;;14.55;100.00;93636.25;2105703;28;20027;-86
2021/08/13 02:14:00;;;;;;;10.07;8.68;;;;;;;14.54;100.00;93629.38;2120957;28;20020;-87
2021/08/13 02:15:05;;;;;;;12.32;8.98;;;;;;;14.55;100.00;93630.13;2117031;27;20122;-88
2021/08/13 02:16:10;;;;;;;12.27;9.27;;;;;;;14.53;100.00;93630.56;2113992;28;20028;-87
2021/08/13 02:17:18;;;;;;;11.00;8.60;;;;;;;14.57;100.00;93627.75;2125257;27;20019;-88
2021/08/13 02:18:24;;;;;;;11.18;8.05;;;;;;;14.57;100.00;93631.22;2125764;27;20027;-89
2021/08/13 02:19:47;;;;;;;10.88;9.15;;;;;;;14.59;100.00;93630.78;2117252;28;20023;-87
2021/08/13 02:20:53;;;;;;;11.55;8.50;;;;;;;14.55;100.00;93628.19;2119622;27;20019;-86
2021/08/13 02:21:54;;;;;;;10.48;8.88;;;;;;;14.52;100.00;93629.03;2110506;28;20020;-87
2021/08/13 02:22:55;;;;;;;10.15;9.13;;;;;;;14.47;100.00;93621.47;2106606;28;20075;-87
2021/08/13 02:23:56;;;;;;;10.60;8.43;;;;;;;14.51;100.00;93624.84;2107805;28;20063;-86
2021/08/13 02:24:56;;;;;;;10.13;8.18;;;;;;;14.46;100.00;93628.03;2110067;27;20031;-88
2021/08/13 02:25:57;;;;;;;10.82;8.88;;;;;;;14.43;100.00;93626.19;2120708;27;20136;-89
2021/08/13 02:27:01;;;;;;;9.63;8.63;;;;;;;14.39;100.00;93616.72;2108149;28;20051;-89
2021/08/13 02:28:02;;;;;;;10.13;9.05;;;;;;;14.44;100.00;93625.00;2112848;28;20024;-90
2021/08/13 02:29:03;;;;;;;11.48;8.20;;;;;;;14.38;100.00;93628.66;2100131;28;20029;-90
2021/08/13 02:30:07;;;;;;;9.02;8.02;;;;;;;14.36;100.00;93623.72;2099697;28;20070;-86
2021/08/13 02:31:07;;;;;;;10.63;8.30;;;;;;;14.35;100.00;93622.97;2108834;27;20024;-87
2021/08/13 02:32:08;;;;;;;8.80;7.90;;;;;;;14.29;100.00;93618.53;2116434;28;20031;-87
2021/08/13 02:33:09;;;;;;;12.80;9.02;;;;;;;14.34;100.00;93618.00;2104516;28;20036;-87
2021/08/13 02:34:11;;;;;;;11.60;8.60;;;;;;;14.34;100.00;93618.00;2099754;28;20032;-88
2021/08/13 02:35:12;;;;;;;9.50;8.50;;;;;;;14.39;100.00;93619.41;2103817;28;20035;-86
2021/08/13 02:36:15;;;;;;;9.75;8.75;;;;;;;14.39;100.00;93617.47;2103600;28;20016;-86
2021/08/13 02:37:47;;;;;;;9.55;8.63;;;;;;;14.41;100.00;93620.50;2105475;28;20032;-86
2021/08/13 02:38:58;;;;;;;10.25;8.60;;;;;;;14.38;100.00;93615.22;2109065;28;20028;-86
2021/08/13 02:40:28;;;;;;;12.90;9.88;;;;;;;14.43;100.00;93623.50;2111339;27;20085;-89
2021/08/13 02:41:32;;;;;;;11.15;8.80;;;;;;;14.41;100.00;93617.81;2104106;28;20043;-87
2021/08/13 02:42:56;;;;;;;12.10;9.23;;;;;;;14.40;100.00;93619.00;2111638;28;20024;-88
2021/08/13 02:43:59;;;;;;;11.73;8.93;;;;;;;14.42;100.00;93623.94;2093568;28;20036;-88
2021/08/13 02:45:02;;;;;;;12.13;9.20;;;;;;;14.32;100.00;93621.13;2096557;28;20028;-87
2021/08/13 02:46:06;;;;;;;10.35;9.25;;;;;;;14.38;100.00;93629.44;2106791;28;20020;-87
2021/08/13 02:47:10;;;;;;;10.88;8.63;;;;;;;14.34;100.00;93626.81;2107200;28;20031;-87
2021/08/13 02:48:14;;;;;;;13.35;9.02;;;;;;;14.36;100.00;93626.41;2108751;28;20481;-86
2021/08/13 02:49:16;;;;;;;10.75;9.65;;;;;;;14.34;100.00;93629.50;2104773;28;20059;-87
2021/08/13 02:50:19;;;;;;;10.20;9.30;;;;;;;14.39;100.00;93630.19;2108464;27;20163;-88
2021/08/13 02:51:24;;;;;;;10.63;9.40;;;;;;;14.33;100.00;93628.00;2116565;27;20036;-88
2021/08/13 02:52:29;;;;;;;9.95;8.45;;;;;;;14.39;100.00;93633.63;2106177;28;20066;-88
2021/08/13 02:53:39;;;;;;;12.70;9.05;;;;;;;14.36;100.00;93634.50;2106553;28;20028;-88
2021/08/13 02:54:41;;;;;;;10.27;9.05;;;;;;;14.26;100.00;93636.25;2106236;28;20123;-87
2021/08/13 02:56:04;;;;;;;10.75;9.68;;;;;;;14.21;100.00;93627.97;2108273;27;20073;-88
2021/08/13 02:57:06;;;;;;;10.00;8.82;;;;;;;14.26;100.00;93624.75;2113956;28;20476;-87
2021/08/13 02:58:11;;;;;;;11.30;9.18;;;;;;;14.19;100.00;93623.03;2103702;28;20035;-87
2021/08/13 02:59:17;;;;;;;11.32;9.88;;;;;;;14.21;100.00;93628.72;2100516;28;20032;-88
2021/08/13 03:00:19;;;;;;;11.40;9.18;;;;;;;14.17;100.00;93627.31;2113534;28;20023;-87
2021/08/13 03:01:28;;;;;;;10.32;9.27;;;;;;;14.18;100.00;93626.91;2107996;28;20115;-87
2021/08/13 03:02:32;;;;;;;10.45;8.95;;;;;;;14.14;100.00;93618.19;2108115;27;20061;-88
2021/08/13 03:03:35;;;;;;;10.20;9.07;;;;;;;14.11;100.00;93625.16;2117603;28;20032;-88
2021/08/13 03:04:39;;;;;;;10.98;9.00;;;;;;;14.07;100.00;93624.50;2108284;28;20493;-86
2021/08/13 03:05:45;;;;;;;11.52;8.52;;;;;;;14.04;100.00;93619.97;2112761;28;20098;-87
2021/08/13 03:06:48;;;;;;;9.88;8.88;;;;;;;14.09;100.00;93622.16;2112182;28;20122;-86
2021/08/13 03:07:53;;;;;;;10.50;8.73;;;;;;;14.07;100.00;93624.50;2108151;27;20024;-89
2021/08/13 03:08:56;;;;;;;9.63;8.70;;;;;;;14.05;100.00;93618.81;2114809;28;20031;-87
2021/08/13 03:09:58;;;;;;;9.55;8.55;;;;;;;14.03;100.00;93623.84;2105768;28;20030;-87
2021/08/13 03:11:01;;;;;;;9.70;8.75;;;;;;;14.02;100.00;93624.28;2101862;28;20021;-87
2021/08/13 03:12:02;;;;;;;9.98;8.95;;;;;;;14.02;100.00;93621.59;2108194;28;20023;-86
2021/08/13 03:13:05;;;;;;;11.57;8.68;;;;;;;14.06;100.00;93623.00;2110699;28;20158;-86
2021/08/13 03:14:08;;;;;;;12.07;9.13;;;;;;;14.09;100.00;93624.84;2108380;27;20032;-87
2021/08/13 03:15:10;;;;;;;13.45;8.50;;;;;;;14.13;100.00;93622.03;2116376;27;20387;-87
2021/08/13 03:16:12;;;;;;;10.07;8.75;;;;;;;14.09;100.00;93618.69;2103878;28;20376;-87
2021/08/13 03:17:14;;;;;;;10.82;9.25;;;;;;;14.09;100.00;93622.16;2103693;27;20393;-86
2021/08/13 03:18:15;;;;;;;12.40;9.48;;;;;;;14.09;100.00;93621.38;2101814;28;20035;-89
2021/08/13 03:19:18;;;;;;;12.43;9.00;;;;;;;14.04;100.00;93625.34;2090125;28;20505;-85
2021/08/13 03:20:19;;;;;;;8.98;8.07;;;;;;;14.06;100.00;93622.25;2094107;28;20462;-87
2021/08/13 03:21:20;;;;;;;9.98;8.98;;;;;;;14.08;100.00;93623.31;2093673;28;20055;-87
2021/08/13 03:22:21;;;;;;;12.95;8.90;;;;;;;14.04;100.00;93627.28;2099070;28;20028;-87
2021/08/13 03:23:23;;;;;;;9.48;8.48;;;;;;;14.06;100.00;93617.63;2103327;28;20115;-88
2021/08/13 03:24:24;;;;;;;10.38;9.27;;;;;;;14.06;100.00;93623.00;2098105;28;20028;-86
2021/08/13 03:25:25;;;;;;;11.68;8.82;;;;;;;14.10;100.00;93617.53;2104835;28;20031;-89
2021/08/13 03:26:27;;;;;;;11.15;9.20;;;;;;;14.08;100.00;93627.94;2099468;28;20031;-87
2021/08/13 03:27:29;;;;;;;11.02;9.57;;;;;;;14.06;100.00;93622.25;2093635;28;20020;-86
2021/08/13 03:28:30;;;;;;;11.05;8.30;;;;;;;14.05;100.00;93626.88;2096650;28;20028;-87
2021/08/13 03:29:31;;;;;;;9.35;8.45;;;;;;;14.07;100.00;93624.50;2102168;28;20613;-87
2021/08/13 03:30:43;;;;;;;10.30;9.27;;;;;;;14.14;100.00;93622.81;2102156;28;20388;-87
2021/08/13 03:31:46;;;;;;;9.82;8.80;;;;;;;14.15;100.00;93622.38;2096935;28;20089;-88
2021/08/13 03:32:48;;;;;;;10.30;9.23;;;;;;;14.19;100.00;93624.97;2093783;28;20035;-86
2021/08/13 03:33:49;;;;;;;10.38;9.38;;;;;;;14.18;100.00;93624.22;2094303;28;20027;-88
2021/08/13 03:34:53;;;;;;;11.38;9.15;;;;;;;14.17;100.00;93622.69;2102237;28;20059;-87
2021/08/13 03:35:55;;;;;;;9.07;8.23;;;;;;;14.21;100.00;93617.97;2102449;28;20024;-87
2021/08/13 03:37:00;;;;;;;10.70;9.60;;;;;;;14.22;100.00;93622.16;2093724;28;20028;-89
2021/08/13 03:38:02;;;;;;;11.32;9.20;;;;;;;14.31;100.00;93624.22;2094230;28;20540;-87
2021/08/13 03:39:07;;;;;;;12.43;9.23;;;;;;;14.33;100.00;93625.31;2093633;28;21021;-88
2021/08/13 03:40:09;;;;;;;11.55;8.73;;;;;;;14.31;100.00;93621.53;2095547;28;20128;-88
2021/08/13 03:41:10;;;;;;;13.13;9.50;;;;;;;14.27;100.00;93623.59;2094157;28;20067;-86
2021/08/13 03:42:10;;;;;;;12.45;9.43;;;;;;;14.27;100.00;93623.59;2105429;28;20036;-89
2021/08/13 03:43:11;;;;;;;10.00;9.00;;;;;;;14.27;100.00;93631.66;2106119;28;20492;-86
2021/08/13 03:44:12;;;;;;;10.35;8.68;;;;;;;14.30;100.00;93622.72;2110048;28;20032;-88
2021/08/13 03:45:13;;;;;;;12.15;9.45;;;;;;;14.32;100.00;93625.75;2119062;27;20067;-88
2021/08/13 03:46:15;;;;;;;11.57;9.05;;;;;;;14.41;100.00;93623.19;2098182;28;20059;-88
2021/08/13 03:47:15;;;;;;;9.70;8.70;;;;;;;14.43;100.00;93617.38;2106262;28;20028;-87
2021/08/13 03:48:16;;;;;;;10.32;9.30;;;;;;;14.33;100.00;93625.31;2101769;28;20033;-87
2021/08/13 03:49:17;;;;;;;10.45;9.35;;;;;;;14.28;100.00;93628.53;2109196;28;20028;-87
2021/08/13 03:50:19;;;;;;;10.77;8.40;;;;;;;14.24;100.00;93627.88;2101934;28;20491;-89
2021/08/13 03:51:20;;;;;;;11.65;8.95;;;;;;;14.20;100.00;93626.47;2089746;28;20032;-86
2021/08/13 03:52:20;;;;;;;12.48;8.93;;;;;;;14.11;100.00;93630.53;2102935;28;20028;-89
2021/08/13 03:53:21;;;;;;;9.35;8.45;;;;;;;14.20;100.00;93626.47;2105041;28;20067;-85
2021/08/13 03:54:23;;;;;;;9.70;8.70;;;;;;;14.19;100.00;93633.03;2093595;28;20111;-89
2021/08/13 03:55:23;;;;;;;12.00;8.60;;;;;;;14.20;100.00;93637.22;2093129;28;20024;-89
2021/08/13 03:56:25;;;;;;;9.07;8.18;;;;;;;14.20;100.00;93629.16;2103692;28;20020;-87
2021/08/13 03:57:25;;;;;;;11.38;9.18;;;;;;;14.23;100.00;93639.06;2104275;28;20402;-87
2021/08/13 03:58:26;;;;;;;11.25;8.60;;;;;;;14.27;100.00;93635.09;2101795;28;20035;-85
2021/08/13 03:59:27;;;;;;;10.05;9.05;;;;;;;14.33;100.00;93638.78;2091290;28;20437;-86
2021/08/13 04:00:28;;;;;;;11.77;8.63;;;;;;;14.32;100.00;93636.53;2099563;28;20525;-88
2021/08/13 04:01:29;;;;;;;9.38;8.40;;;;;;;14.30;100.00;93642.31;2093377;28;20024;-87
2021/08/13 04:02:30;;;;;;;11.63;8.40;;;;;;;14.34;100.00;93642.97;2104405;28;20498;-88
2021/08/13 04:03:31;;;;;;;9.88;8.18;;;;;;;14.33;100.00;93641.47;2111927;28;20031;-88
2021/08/13 04:04:32;;;;;;;9.50;8.48;;;;;;;14.34;100.00;93644.91;2096287;28;20448;-89
2021/08/13 04:05:33;;;;;;;15.60;8.52;;;;;;;14.35;100.00;93647.19;2105982;28;20039;-86
2021/08/13 04:06:34;;;;;;;10.00;9.00;;;;;;;14.33;100.00;93648.78;2105386;28;20437;-87
2021/08/13 04:07:35;;;;;;;12.32;8.48;;;;;;;14.31;100.00;93638.47;2106119;28;20024;-86
2021/08/13 04:08:36;;;;;;;8.38;7.53;;;;;;;14.35;100.00;93643.72;2108529;28;20027;-86
2021/08/13 04:09:37;;;;;;;9.10;8.20;;;;;;;14.38;100.00;93642.13;2094106;28;20021;-87
2021/08/13 04:10:38;;;;;;;11.10;8.50;;;;;;;14.37;100.00;93652.13;2093509;28;20553;-87
2021/08/13 04:11:39;;;;;;;10.45;8.35;;;;;;;14.36;100.00;93643.31;2101658;28;20034;-88
2021/08/13 04:12:39;;;;;;;9.18;7.88;;;;;;;14.39;100.00;93641.69;2100659;28;20070;-89
2021/08/13 04:13:40;;;;;;;11.18;8.13;;;;;;;14.38;100.00;93642.13;2093028;28;20028;-87
2021/08/13 04:14:41;;;;;;;9.65;8.63;;;;;;;14.42;100.00;93637.41;2114731;28;20031;-89
2021/08/13 04:15:42;;;;;;;9.60;8.07;;;;;;;14.31;100.00;93648.44;2110062;28;20435;-86
2021/08/13 04:16:43;;;;;;;9.57;7.93;;;;;;;14.27;100.00;93639.75;2097543;28;20067;-87
2021/08/13 04:17:44;;;;;;;10.13;7.97;;;;;;;14.30;100.00;93641.56;2096942;28;20058;-89
2021/08/13 04:18:45;;;;;;;11.55;8.05;;;;;;;14.32;100.00;93639.22;2089468;28;20028;-87
2021/08/13 04:19:46;;;;;;;9.88;8.32;;;;;;;14.36;100.00;93645.25;2093356;28;20024;-86
2021/08/13 04:20:47;;;;;;;9.48;7.38;;;;;;;14.37;100.00;93641.38;2110034;28;20031;-89
2021/08/13 04:21:47;;;;;;;10.82;7.72;;;;;;;14.37;100.00;93646.75;2101690;28;20028;-87
2021/08/13 04:22:48;;;;;;;8.38;7.57;;;;;;;14.39;100.00;93649.00;2093124;28;20568;-88
2021/08/13 04:23:49;;;;;;;13.38;8.20;;;;;;;14.42;100.00;93640.84;2101229;28;20080;-86
2021/08/13 04:24:52;;;;;;;11.75;8.20;;;;;;;14.51;100.00;93634.84;2101725;28;20029;-87
2021/08/13 04:25:53;;;;;;;9.43;7.93;;;;;;;14.46;100.00;93641.50;2101686;28;20044;-88
2021/08/13 04:26:54;;;;;;;11.77;8.02;;;;;;;14.52;100.00;93634.44;2101712;28;20020;-87
2021/08/13 04:27:55;;;;;;;12.45;8.18;;;;;;;14.51;100.00;93640.25;2105903;28;20024;-87
2021/08/13 04:28:56;;;;;;;8.82;7.55;;;;;;;14.45;100.00;93636.56;2103723;28;20070;-88
2021/08/13 04:29:57;;;;;;;13.43;8.13;;;;;;;14.37;100.00;93641.38;2090009;28;20028;-88
2021/08/13 04:30:58;;;;;;;10.82;7.95;;;;;;;14.40;100.00;93645.91;2101730;28;20405;-89
2021/08/13 04:31:59;;;;;;;12.32;7.65;;;;;;;14.41;100.00;93652.03;2101588;28;20591;-86
2021/08/13 04:33:09;;;;;;;10.45;8.18;;;;;;;14.46;100.00;93646.88;2091370;28;20021;-87
2021/08/13 04:34:10;;;;;;;9.00;8.10;;;;;;;14.43;100.00;93649.66;2103028;28;20029;-86
2021/08/13 04:35:12;;;;;;;12.60;7.70;;;;;;;14.39;100.00;93649.75;2105015;28;20041;-87
2021/08/13 04:36:13;;;;;;;9.20;7.80;;;;;;;14.38;100.00;93650.94;2093709;28;20025;-85
2021/08/13 04:37:13;;;;;;;9.02;7.72;;;;;;;14.38;100.00;93647.50;2093424;28;20489;-87
2021/08/13 04:38:14;;;;;;;11.60;7.88;;;;;;;14.36;100.00;93650.63;2111823;28;20055;-86
2021/08/13 04:39:15;;;;;;;13.77;7.95;;;;;;;14.33;100.00;93649.53;2101428;28;20060;-87
2021/08/13 04:40:16;;;;;;;7.65;6.85;;;;;;;14.34;100.00;93647.59;2109321;28;20504;-89
2021/08/13 04:41:17;;;;;;;9.18;7.50;;;;;;;14.31;100.00;93654.59;2098293;28;20110;-87
2021/08/13 04:42:18;;;;;;;7.88;7.07;;;;;;;14.34;100.00;93650.28;2093494;28;20474;-87
2021/08/13 04:43:19;;;;;;;12.50;7.57;;;;;;;14.29;100.00;93643.50;2093253;28;20051;-88
2021/08/13 04:44:20;;;;;;;9.18;7.90;;;;;;;14.27;100.00;93659.31;2100690;28;20036;-88
2021/08/13 04:45:21;;;;;;;11.73;8.13;;;;;;;14.28;100.00;93652.75;2106958;28;20019;-86
2021/08/13 04:46:22;;;;;;;8.05;7.25;;;;;;;14.32;100.00;93656.09;2109547;27;20024;-88
2021/08/13 04:47:23;;;;;;;9.57;7.72;;;;;;;14.27;100.00;93653.19;2114294;28;20473;-87
2021/08/13 04:48:24;;;;;;;8.50;7.40;;;;;;;14.21;100.00;93655.63;2105534;28;20069;-88
2021/08/13 04:49:25;;;;;;;9.68;7.93;;;;;;;14.25;100.00;93655.53;2101479;28;20032;-87
2021/08/13 04:50:26;;;;;;;11.65;8.40;;;;;;;14.28;100.00;93643.94;2089113;28;20024;-86
2021/08/13 04:51:27;;;;;;;8.20;7.40;;;;;;;14.31;100.00;93651.91;2093092;28;20024;-88
2021/08/13 04:52:28;;;;;;;9.05;7.60;;;;;;;14.32;100.00;93647.28;2092860;28;20082;-89